Time;durP1;ratioP1;P1;durP2;ratioP2;P2;SDS_P1;SDS_P2;PMS_P1;PMS_P2;Temp;Humidity;BMP_temperature;BMP_pressure;BME280_temperature;BME280_humidity;BME280_pressure;Samples;Min_cycle;Max_cycle;Signal;HPM_P1;HPM_P2
2022/03/21 00:02:22;;;;;;;11.02;7.00;;;6.90;50.00;;;;;;5049848;28;20112;-79
2022/03/21 00:04:48;;;;;;;10.32;6.45;;;6.80;50.10;;;;;;5029048;28;20067;-79
2022/03/21 00:07:26;;;;;;;8.40;6.28;;;6.80;50.10;;;;;;5033335;28;20124;-79
2022/03/21 00:09:57;;;;;;;10.85;7.03;;;6.80;50.20;;;;;;5049564;28;20504;-79
2022/03/21 00:12:51;;;;;;;10.50;7.13;;;6.80;50.30;;;;;;5047368;28;20079;-80
2022/03/21 00:15:19;;;;;;;11.75;7.00;;;6.70;50.50;;;;;;5033196;28;20116;-79
2022/03/21 00:17:46;;;;;;;10.60;6.32;;;6.70;50.30;;;;;;5051159;28;20574;-79
2022/03/21 00:20:16;;;;;;;9.27;6.53;;;6.60;51.10;;;;;;5051262;28;20094;-79
2022/03/21 00:22:45;;;;;;;7.85;5.70;;;6.60;50.50;;;;;;5051198;28;20055;-79
2022/03/21 00:25:11;;;;;;;11.55;6.00;;;6.70;50.50;;;;;;5051120;28;20021;-79
2022/03/21 00:27:40;;;;;;;13.40;6.97;;;6.70;50.40;;;;;;5033199;28;20055;-79
2022/03/21 00:30:10;;;;;;;10.07;6.90;;;6.80;50.10;;;;;;5033029;28;20040;-79
2022/03/21 00:32:44;;;;;;;11.93;6.55;;;6.80;49.80;;;;;;5033120;28;20104;-79
2022/03/21 00:35:15;;;;;;;8.88;6.47;;;6.90;49.80;;;;;;5046968;28;20009;-79
2022/03/21 00:37:42;;;;;;;11.98;6.82;;;6.90;50.00;;;;;;5051035;28;20028;-79
2022/03/21 00:40:13;;;;;;;12.43;6.43;;;6.90;49.80;;;;;;5046559;28;20012;-79
2022/03/21 00:42:41;;;;;;;14.65;6.50;;;6.90;49.80;;;;;;5050710;28;20064;-80
2022/03/21 00:45:16;;;;;;;11.00;7.03;;;6.80;49.80;;;;;;5028369;28;20063;-79
2022/03/21 00:47:42;;;;;;;8.10;5.95;;;6.80;50.00;;;;;;5050738;28;20107;-79
2022/03/21 00:50:18;;;;;;;15.35;6.95;;;6.80;50.20;;;;;;5029153;28;20017;-79
2022/03/21 00:52:50;;;;;;;11.00;6.78;;;6.70;50.60;;;;;;5050542;28;20020;-79
2022/03/21 00:55:24;;;;;;;9.15;6.78;;;6.60;50.50;;;;;;5050293;28;20082;-79
2022/03/21 00:57:52;;;;;;;10.40;6.85;;;6.60;50.70;;;;;;5050684;28;20119;-79
2022/03/21 01:00:22;;;;;;;13.02;7.28;;;6.60;50.60;;;;;;5050431;28;20032;-79
2022/03/21 01:02:48;;;;;;;11.00;7.40;;;6.60;50.60;;;;;;5032629;28;20037;-79
2022/03/21 01:05:14;;;;;;;10.50;6.80;;;6.70;50.90;;;;;;5050694;28;20036;-79
2022/03/21 01:07:41;;;;;;;10.43;6.82;;;6.60;50.80;;;;;;5050511;28;20092;-79
2022/03/21 01:10:15;;;;;;;11.90;7.15;;;6.60;50.90;;;;;;5046313;28;20020;-79
2022/03/21 01:12:43;;;;;;;9.40;6.90;;;6.60;51.00;;;;;;5032673;28;20032;-79
2022/03/21 01:15:13;;;;;;;11.55;7.43;;;6.60;51.20;;;;;;5046246;28;20048;-80
2022/03/21 01:17:39;;;;;;;10.63;6.95;;;6.60;51.20;;;;;;5032565;28;20021;-79
2022/03/21 01:20:12;;;;;;;13.32;7.25;;;6.50;51.40;;;;;;5050528;28;20035;-79
2022/03/21 01:22:37;;;;;;;10.82;7.10;;;6.50;51.10;;;;;;5050397;28;20017;-79
2022/03/21 01:25:05;;;;;;;12.43;6.78;;;6.50;51.40;;;;;;5050157;28;20017;-79
2022/03/21 01:27:31;;;;;;;8.45;6.43;;;6.50;51.50;;;;;;5054439;28;20036;-79
2022/03/21 01:30:18;;;;;;;9.68;6.53;;;6.50;51.40;;;;;;5054218;28;20404;-79
2022/03/21 01:32:45;;;;;;;12.77;7.25;;;6.50;51.40;;;;;;5036412;28;20486;-79
2022/03/21 01:35:26;;;;;;;9.18;6.72;;;6.50;51.40;;;;;;5054344;28;20383;-79
2022/03/21 01:37:54;;;;;;;8.88;7.05;;;6.40;51.60;;;;;;5054117;28;20021;-79
2022/03/21 01:40:22;;;;;;;10.85;6.57;;;6.30;51.60;;;;;;5054237;28;20013;-79
2022/03/21 01:42:51;;;;;;;8.88;6.95;;;6.30;51.90;;;;;;5035985;28;20699;-79
2022/03/21 01:45:20;;;;;;;13.43;6.90;;;6.20;52.10;;;;;;5036031;28;20033;-79
2022/03/21 01:47:47;;;;;;;9.48;6.93;;;6.20;52.10;;;;;;5054080;28;20107;-79
2022/03/21 01:50:21;;;;;;;19.48;7.13;;;6.10;52.20;;;;;;5053987;28;20075;-79
2022/03/21 01:56:10;;;;;;;12.55;7.35;;;6.10;52.30;;;;;;5048834;28;20039;-79
2022/03/21 01:58:37;;;;;;;9.18;6.32;;;6.10;52.50;;;;;;5035983;28;20021;-79
2022/03/21 02:01:02;;;;;;;11.40;6.72;;;6.00;52.50;;;;;;5053835;28;20036;-79
2022/03/21 02:03:29;;;;;;;11.13;7.25;;;6.00;52.40;;;;;;5053638;28;20589;-79
2022/03/21 02:06:04;;;;;;;14.18;7.20;;;5.90;52.60;;;;;;5053678;28;20039;-79
2022/03/21 02:08:33;;;;;;;11.85;6.68;;;5.80;52.80;;;;;;5035737;28;20115;-79
2022/03/21 02:11:00;;;;;;;13.75;6.95;;;5.70;53.10;;;;;;5053540;28;20032;-79
2022/03/21 02:13:36;;;;;;;9.35;6.90;;;5.70;52.80;;;;;;5053655;28;20018;-79
2022/03/21 02:16:25;;;;;;;11.00;6.88;;;5.80;52.90;;;;;;5053508;28;20495;-79
2022/03/21 02:18:53;;;;;;;8.23;6.35;;;5.80;53.10;;;;;;5035363;28;20029;-79
2022/03/21 02:21:57;;;;;;;11.02;6.68;;;5.80;53.00;;;;;;5053100;28;20063;-79
2022/03/21 02:24:46;;;;;;;14.05;7.70;;;5.80;53.00;;;;;;5051450;28;20017;-79
2022/03/21 02:27:20;;;;;;;9.02;6.32;;;5.70;53.20;;;;;;4988033;28;20499;-79
2022/03/21 02:29:57;;;;;;;18.30;7.50;;;5.80;53.10;;;;;;5052384;28;20033;-79
2022/03/21 02:32:24;;;;;;;9.95;6.68;;;5.80;53.00;;;;;;5048975;28;20021;-79
2022/03/21 02:35:25;;;;;;;8.15;6.50;;;5.90;53.00;;;;;;5053033;28;20052;-79
2022/03/21 02:37:58;;;;;;;11.05;6.93;;;5.90;52.90;;;;;;5018463;28;20029;-79
2022/03/21 02:40:25;;;;;;;11.43;6.82;;;5.80;52.90;;;;;;5053163;28;20029;-79
2022/03/21 02:43:04;;;;;;;10.40;6.85;;;5.80;53.00;;;;;;5053080;28;20021;-79
2022/03/21 02:45:33;;;;;;;12.50;7.80;;;5.80;53.00;;;;;;5052850;28;20060;-79
2022/03/21 02:47:59;;;;;;;12.68;7.68;;;5.90;52.90;;;;;;5053007;28;20095;-79
2022/03/21 02:51:02;;;;;;;8.60;6.35;;;5.90;53.00;;;;;;5052892;28;20510;-79
2022/03/21 02:53:38;;;;;;;14.38;6.57;;;5.80;53.00;;;;;;5052851;28;20106;-79
2022/03/21 02:56:07;;;;;;;16.60;7.55;;;5.80;52.90;;;;;;5052732;28;20068;-79
2022/03/21 02:58:46;;;;;;;10.02;6.53;;;5.80;53.20;;;;;;5052684;28;20021;-79
2022/03/21 03:01:17;;;;;;;12.90;6.78;;;5.70;53.20;;;;;;5052764;28;20036;-80
2022/03/21 03:03:44;;;;;;;10.30;6.72;;;5.70;53.10;;;;;;5052487;28;20462;-79
2022/03/21 03:06:13;;;;;;;12.55;7.28;;;5.80;52.90;;;;;;5052566;28;20036;-79
2022/03/21 03:08:44;;;;;;;12.50;7.63;;;5.90;52.90;;;;;;5029445;28;20045;-79
2022/03/21 03:11:11;;;;;;;11.90;7.38;;;5.90;52.90;;;;;;5034546;28;20028;-79
2022/03/21 03:13:43;;;;;;;12.00;7.82;;;5.90;53.00;;;;;;5052409;28;20028;-79
2022/03/21 03:16:09;;;;;;;10.45;7.05;;;5.90;52.60;;;;;;5052455;28;20025;-79
2022/03/21 03:18:47;;;;;;;9.15;7.80;;;5.90;52.80;;;;;;5034513;28;20549;-79
2022/03/21 03:21:19;;;;;;;11.05;7.68;;;5.90;52.80;;;;;;5052229;28;20029;-79
2022/03/21 03:23:50;;;;;;;9.07;7.45;;;5.80;52.90;;;;;;5034389;28;20503;-79
2022/03/21 03:26:17;;;;;;;10.98;7.63;;;5.80;53.30;;;;;;5052245;28;20075;-79
2022/03/21 03:28:56;;;;;;;12.75;7.38;;;5.80;53.10;;;;;;5052147;28;20353;-79
2022/03/21 03:31:25;;;;;;;9.90;7.00;;;5.80;53.40;;;;;;5052210;28;20021;-79
2022/03/21 03:33:54;;;;;;;11.30;7.22;;;5.80;53.40;;;;;;5034085;28;20029;-79
2022/03/21 03:36:20;;;;;;;9.50;7.07;;;5.80;53.30;;;;;;5033937;28;20021;-79
2022/03/21 03:39:07;;;;;;;14.60;7.63;;;5.80;53.50;;;;;;5051452;28;20025;-79
2022/03/21 03:41:37;;;;;;;11.60;7.65;;;5.80;53.30;;;;;;5034093;28;20124;-79
2022/03/21 03:44:10;;;;;;;14.07;8.27;;;5.90;53.20;;;;;;5051942;28;20075;-79
2022/03/21 03:47:00;;;;;;;13.45;7.35;;;5.90;53.30;;;;;;5051982;28;20033;-79
2022/03/21 03:49:31;;;;;;;12.27;7.05;;;5.90;52.80;;;;;;5051121;28;20028;-79
2022/03/21 03:52:00;;;;;;;18.05;8.15;;;6.00;53.00;;;;;;5050981;28;20025;-79
2022/03/21 03:54:29;;;;;;;12.80;7.95;;;5.90;53.00;;;;;;5051337;28;20033;-79
2022/03/21 03:56:57;;;;;;;10.57;7.78;;;6.00;53.00;;;;;;5033647;28;20025;-79
2022/03/21 03:59:28;;;;;;;14.05;7.50;;;6.00;52.90;;;;;;5051540;28;20464;-79
2022/03/21 04:02:05;;;;;;;;;;;;;;;;;;;;;
2022/03/21 04:04:36;;;;;;;14.75;7.65;;;6.00;52.80;;;;;;5050889;28;20033;-79
2022/03/21 04:07:06;;;;;;;12.60;8.25;;;6.00;52.90;;;;;;5033300;28;20057;-78
2022/03/21 04:09:32;;;;;;;13.82;7.57;;;5.90;53.00;;;;;;5051106;28;20040;-79
2022/03/21 04:12:35;;;;;;;14.88;7.78;;;5.90;53.30;;;;;;5051741;28;20025;-79
2022/03/21 04:15:07;;;;;;;11.68;7.60;;;5.90;53.40;;;;;;5050476;28;20041;-80
2022/03/21 04:17:46;;;;;;;16.90;8.73;;;5.90;53.30;;;;;;5033448;28;20036;-78
2022/03/21 04:20:16;;;;;;;11.15;7.30;;;5.90;53.10;;;;;;5047519;28;20028;-80
2022/03/21 04:22:55;;;;;;;11.27;8.02;;;5.80;53.40;;;;;;5033269;28;20104;-79
2022/03/21 04:25:30;;;;;;;13.02;8.57;;;5.80;53.60;;;;;;5051222;28;20017;-79
2022/03/21 04:28:06;;;;;;;12.80;8.00;;;5.80;53.50;;;;;;5042737;28;20103;-79
2022/03/21 04:30:49;;;;;;;12.43;7.88;;;5.80;53.60;;;;;;5050901;28;20037;-78
2022/03/21 04:33:23;;;;;;;12.38;8.13;;;5.80;53.60;;;;;;5050935;28;20045;-79
2022/03/21 04:35:49;;;;;;;14.27;8.05;;;5.80;54.00;;;;;;5050931;28;20424;-78
2022/03/21 04:38:35;;;;;;;15.95;8.30;;;5.90;53.10;;;;;;5050935;28;20115;-78
2022/03/21 04:41:09;;;;;;;11.82;8.50;;;5.90;53.50;;;;;;5051293;28;20025;-78
2022/03/21 04:43:49;;;;;;;;;;;;;;;;;;;;;
2022/03/21 04:49:35;;;;;;;;;;;;;;;;;;;;;
2022/03/21 04:52:28;;;;;;;13.00;7.90;;;5.80;53.90;;;;;;5050576;28;20036;-78
2022/03/21 04:54:59;;;;;;;15.80;8.23;;;5.80;54.90;;;;;;4984536;28;20033;-78
2022/03/21 04:57:33;;;;;;;11.73;8.27;;;5.70;54.10;;;;;;5029166;28;20067;-78
2022/03/21 05:00:19;;;;;;;10.18;7.93;;;5.80;54.20;;;;;;5037216;28;20068;-78
2022/03/21 05:02:46;;;;;;;14.52;7.50;;;5.90;54.90;;;;;;5049762;28;20040;-79
2022/03/21 05:05:21;;;;;;;13.45;7.90;;;5.80;54.40;;;;;;5050539;28;20029;-78
2022/03/21 05:07:52;;;;;;;14.45;8.10;;;5.80;54.70;;;;;;5050531;28;20113;-78
2022/03/21 05:10:21;;;;;;;12.35;7.70;;;5.80;54.60;;;;;;5050658;28;20017;-78
2022/03/21 05:12:50;;;;;;;13.02;7.40;;;5.80;54.10;;;;;;5050486;28;20032;-78
2022/03/21 05:15:20;;;;;;;10.43;7.78;;;5.80;55.00;;;;;;5032444;28;20028;-78
2022/03/21 05:17:52;;;;;;;9.88;7.05;;;5.80;54.30;;;;;;5050390;28;20021;-78
2022/03/21 05:20:21;;;;;;;10.50;8.05;;;5.80;54.10;;;;;;5050313;28;20021;-78
2022/03/21 05:31:04;;;;;;;10.85;7.82;;;6.00;53.90;;;;;;5050693;28;20083;-78
2022/03/21 05:36:21;;;;;;;17.13;8.45;;;6.00;54.20;;;;;;5050437;28;20043;-78
2022/03/21 05:38:46;;;;;;;10.77;7.65;;;6.00;53.40;;;;;;5032308;28;20028;-78
2022/03/21 05:41:16;;;;;;;13.85;8.20;;;6.10;53.60;;;;;;5050315;28;20029;-78
2022/03/21 05:43:42;;;;;;;12.98;7.90;;;6.10;53.80;;;;;;5050002;28;20029;-78
2022/03/21 05:46:08;;;;;;;18.50;8.07;;;6.10;54.00;;;;;;5050220;28;20079;-78
2022/03/21 05:51:20;;;;;;;14.02;8.15;;;6.20;53.10;;;;;;5050382;28;20060;-78
2022/03/21 05:53:46;;;;;;;9.90;7.60;;;6.30;53.00;;;;;;5032174;28;20035;-78
2022/03/21 05:56:15;;;;;;;13.05;8.25;;;6.40;53.20;;;;;;5050212;28;20478;-78
2022/03/21 05:58:42;;;;;;;10.82;7.45;;;6.40;53.20;;;;;;5050293;28;20029;-79
2022/03/21 06:01:10;;;;;;;9.93;7.05;;;6.40;52.90;;;;;;5032195;28;20029;-78
2022/03/21 06:03:36;;;;;;;13.57;7.70;;;6.50;52.80;;;;;;5049985;28;20044;-78
2022/03/21 06:06:02;;;;;;;13.63;8.07;;;6.60;53.20;;;;;;5050117;28;20037;-79
2022/03/21 06:08:28;;;;;;;11.80;7.63;;;6.60;52.60;;;;;;5032171;28;20167;-79
2022/03/21 06:11:03;;;;;;;13.77;8.10;;;6.70;53.10;;;;;;5050104;28;20040;-79
2022/03/21 06:13:33;;;;;;;12.48;7.75;;;6.70;52.60;;;;;;5035684;28;20122;-79
2022/03/21 06:16:04;;;;;;;14.75;7.22;;;6.80;52.20;;;;;;5035491;28;20035;-79
2022/03/21 06:18:35;;;;;;;17.00;7.65;;;6.90;52.20;;;;;;5053372;28;20033;-79
2022/03/21 06:21:02;;;;;;;11.43;8.13;;;7.00;52.00;;;;;;5053177;28;20028;-78
2022/03/21 06:23:28;;;;;;;11.13;7.43;;;7.10;52.40;;;;;;5052982;28;20117;-78
2022/03/21 06:25:55;;;;;;;15.88;8.50;;;7.20;51.70;;;;;;5035459;28;20128;-78
2022/03/21 06:28:22;;;;;;;11.95;8.25;;;7.30;52.50;;;;;;5053187;28;20523;-78
2022/03/21 06:30:51;;;;;;;11.23;8.55;;;7.30;51.80;;;;;;5053211;28;20047;-78
2022/03/21 06:33:22;;;;;;;11.80;7.90;;;7.40;50.80;;;;;;5053190;28;20021;-78
2022/03/21 06:35:49;;;;;;;13.77;8.38;;;7.50;51.30;;;;;;5053500;28;20549;-78
2022/03/21 06:38:20;;;;;;;12.48;7.88;;;7.60;51.20;;;;;;5053045;28;20075;-78
2022/03/21 06:40:57;;;;;;;11.82;7.65;;;7.60;51.10;;;;;;5053222;28;20049;-78
2022/03/21 06:43:24;;;;;;;11.98;8.13;;;7.70;51.20;;;;;;5052862;28;20035;-79
2022/03/21 06:45:54;;;;;;;13.52;8.48;;;7.80;51.40;;;;;;5053081;28;20043;-78
2022/03/21 06:48:21;;;;;;;15.23;9.35;;;7.80;50.80;;;;;;5035281;28;20017;-80
2022/03/21 06:50:51;;;;;;;12.82;9.00;;;7.90;50.70;;;;;;5053191;28;20027;-78
2022/03/21 06:53:21;;;;;;;11.45;7.88;;;8.00;50.70;;;;;;5034746;28;20013;-78
2022/03/21 06:55:55;;;;;;;14.27;7.63;;;8.10;50.70;;;;;;5052809;28;20029;-79
2022/03/21 06:58:21;;;;;;;11.07;7.60;;;8.20;50.80;;;;;;5052604;28;20032;-79
2022/03/21 07:00:48;;;;;;;10.13;7.10;;;8.30;50.00;;;;;;5052675;28;20090;-79
2022/03/21 07:03:15;;;;;;;10.18;7.40;;;8.50;49.80;;;;;;5052566;28;20083;-79
2022/03/21 07:05:51;;;;;;;9.90;7.32;;;8.60;50.10;;;;;;5044116;28;20395;-79
2022/03/21 07:08:20;;;;;;;13.95;7.60;;;8.70;49.70;;;;;;5034755;28;20017;-78
2022/03/21 07:10:54;;;;;;;11.38;7.03;;;8.80;50.10;;;;;;5052895;28;20029;-85
2022/03/21 07:13:21;;;;;;;14.98;7.65;;;8.90;50.00;;;;;;5034762;28;20017;-88
2022/03/21 07:15:47;;;;;;;12.15;7.50;;;9.00;49.40;;;;;;5035445;28;20025;-84
2022/03/21 07:18:13;;;;;;;12.38;7.22;;;9.10;48.80;;;;;;5035318;28;20021;-82
2022/03/21 07:20:43;;;;;;;10.95;7.47;;;9.20;49.10;;;;;;5054934;28;20481;-81
2022/03/21 07:23:08;;;;;;;13.95;8.18;;;9.30;48.50;;;;;;5051509;28;20009;-81
2022/03/21 07:25:39;;;;;;;9.63;7.72;;;9.20;48.30;;;;;;5052495;28;20040;-84
2022/03/21 07:28:09;;;;;;;14.32;7.63;;;9.30;48.50;;;;;;5035380;28;20021;-79
2022/03/21 07:30:35;;;;;;;9.23;7.43;;;9.40;48.70;;;;;;5052204;28;20025;-79
2022/03/21 07:33:10;;;;;;;12.43;7.82;;;9.40;47.70;;;;;;5052240;28;20075;-79
2022/03/21 07:35:39;;;;;;;12.30;7.70;;;9.50;48.10;;;;;;5052002;28;20112;-80
2022/03/21 07:38:13;;;;;;;10.48;7.63;;;9.50;48.00;;;;;;5051166;28;20517;-80
2022/03/21 07:40:44;;;;;;;12.95;7.38;;;9.60;48.00;;;;;;5025621;28;20139;-79
2022/03/21 07:43:09;;;;;;;13.35;7.47;;;9.70;47.60;;;;;;5050310;28;20024;-80
2022/03/21 07:48:19;;;;;;;10.70;7.07;;;9.70;47.60;;;;;;5051484;28;20162;-80
2022/03/21 07:50:45;;;;;;;14.95;7.35;;;9.70;47.60;;;;;;5033472;28;20694;-80
2022/03/21 07:53:11;;;;;;;15.40;7.68;;;9.80;47.40;;;;;;5051285;28;20025;-80
2022/03/21 07:55:46;;;;;;;12.30;7.22;;;9.90;47.60;;;;;;5050369;28;20068;-80
2022/03/21 07:58:17;;;;;;;13.02;7.70;;;10.00;47.60;;;;;;5031885;28;20021;-80
2022/03/21 08:00:43;;;;;;;14.95;7.32;;;10.00;47.70;;;;;;5041645;28;20039;-80
2022/03/21 08:03:11;;;;;;;9.68;7.13;;;10.10;47.50;;;;;;5049605;28;20037;-80
2022/03/21 08:05:37;;;;;;;13.63;7.30;;;10.10;47.30;;;;;;5049708;28;20148;-80
2022/03/21 08:08:04;;;;;;;11.00;6.40;;;10.20;46.30;;;;;;5049941;28;20053;-80
2022/03/21 08:10:30;;;;;;;10.82;7.20;;;10.20;46.40;;;;;;5050679;28;20112;-80
2022/03/21 08:12:56;;;;;;;9.63;7.00;;;10.20;47.40;;;;;;5051493;28;20514;-80
2022/03/21 08:15:23;;;;;;;12.10;7.03;;;10.30;46.80;;;;;;5033386;28;20025;-80
2022/03/21 08:18:03;;;;;;;9.25;7.25;;;10.40;46.80;;;;;;5051234;28;20020;-80
2022/03/21 08:20:35;;;;;;;10.73;6.97;;;10.40;46.60;;;;;;5051052;28;20021;-80
2022/03/21 08:23:06;;;;;;;12.65;7.30;;;10.50;46.60;;;;;;5032944;28;20452;-80
2022/03/21 08:25:32;;;;;;;9.65;6.90;;;10.50;45.90;;;;;;5032961;28;20112;-80
2022/03/21 08:27:58;;;;;;;12.80;8.07;;;10.50;48.20;;;;;;5051007;28;20116;-80
2022/03/21 08:30:24;;;;;;;10.60;7.00;;;10.60;46.40;;;;;;5050946;28;20112;-80
2022/03/21 08:32:50;;;;;;;14.23;7.30;;;10.70;46.10;;;;;;5050946;28;20517;-79
2022/03/21 08:35:18;;;;;;;11.30;7.05;;;10.70;46.30;;;;;;5032984;28;20041;-80
2022/03/21 08:37:44;;;;;;;7.93;6.88;;;10.80;46.10;;;;;;5050786;28;20083;-80
2022/03/21 08:40:14;;;;;;;14.73;7.88;;;10.90;46.00;;;;;;5050627;28;20056;-80
2022/03/21 08:42:40;;;;;;;12.25;7.20;;;10.90;45.20;;;;;;5032966;28;20029;-80
2022/03/21 08:45:08;;;;;;;9.40;6.88;;;10.90;45.30;;;;;;5050594;28;20075;-80
2022/03/21 08:47:37;;;;;;;9.48;6.93;;;10.90;45.90;;;;;;5050631;28;20061;-80
2022/03/21 08:50:04;;;;;;;12.98;7.28;;;11.00;46.00;;;;;;5050765;28;20035;-80
2022/03/21 08:52:34;;;;;;;7.90;6.82;;;11.00;46.00;;;;;;5050422;28;20635;-80
2022/03/21 08:55:00;;;;;;;8.75;7.00;;;11.10;45.60;;;;;;5032658;28;20075;-80
2022/03/21 08:57:32;;;;;;;10.10;6.90;;;11.20;45.60;;;;;;5032926;28;20078;-80
2022/03/21 08:59:57;;;;;;;11.13;7.05;;;11.20;45.30;;;;;;5031263;28;20033;-81
2022/03/21 09:02:30;;;;;;;13.52;7.82;;;11.30;45.40;;;;;;5049763;28;20025;-80
2022/03/21 09:05:04;;;;;;;12.00;7.00;;;11.30;45.10;;;;;;5048774;28;20029;-80
2022/03/21 09:07:30;;;;;;;9.60;7.13;;;11.40;45.60;;;;;;5050531;28;20062;-80
2022/03/21 09:09:59;;;;;;;15.23;7.90;;;11.50;45.20;;;;;;5050232;28;20021;-80
2022/03/21 09:12:24;;;;;;;16.70;6.85;;;11.50;45.10;;;;;;5039913;28;20029;-80
2022/03/21 09:14:50;;;;;;;10.65;6.97;;;11.60;45.50;;;;;;5032120;28;20031;-81
2022/03/21 09:17:16;;;;;;;10.38;7.50;;;11.70;46.00;;;;;;5050330;28;20379;-80
2022/03/21 09:19:47;;;;;;;10.18;7.07;;;11.80;45.00;;;;;;5050109;28;20025;-80
2022/03/21 09:22:13;;;;;;;16.58;7.45;;;11.90;44.50;;;;;;5050186;28;20024;-80
2022/03/21 09:24:38;;;;;;;9.55;7.03;;;11.90;44.80;;;;;;5032005;28;20025;-81
2022/03/21 09:27:04;;;;;;;9.30;6.90;;;12.10;44.70;;;;;;5050349;28;20064;-80
2022/03/21 09:29:31;;;;;;;11.43;7.35;;;12.10;44.20;;;;;;5049744;28;20451;-80
2022/03/21 09:31:57;;;;;;;12.40;6.93;;;12.00;43.90;;;;;;5050564;28;20021;-81
2022/03/21 09:34:23;;;;;;;13.43;7.38;;;12.10;44.60;;;;;;5032327;28;20556;-80
2022/03/21 09:36:49;;;;;;;9.98;7.32;;;12.20;45.10;;;;;;5049928;28;20063;-80
2022/03/21 09:39:20;;;;;;;14.65;7.32;;;12.30;44.20;;;;;;5050095;28;20495;-81
2022/03/21 09:41:47;;;;;;;13.48;7.43;;;12.40;44.80;;;;;;5042538;28;20063;-80
2022/03/21 09:44:13;;;;;;;13.27;8.25;;;12.60;44.20;;;;;;5049409;28;20036;-80
2022/03/21 09:46:41;;;;;;;11.13;6.78;;;12.70;44.30;;;;;;5050887;28;20492;-81
2022/03/21 09:49:14;;;;;;;9.57;7.05;;;12.80;43.80;;;;;;5053999;28;20021;-81
2022/03/21 09:51:41;;;;;;;11.27;6.82;;;12.80;44.10;;;;;;5053829;28;20021;-80
2022/03/21 09:54:13;;;;;;;10.85;6.70;;;12.90;43.80;;;;;;5053573;28;20028;-80
2022/03/21 09:56:39;;;;;;;10.55;6.85;;;13.00;43.40;;;;;;5053689;28;20055;-80
2022/03/21 09:59:14;;;;;;;9.55;6.75;;;13.20;42.90;;;;;;5035723;28;20025;-80
2022/03/21 10:01:43;;;;;;;10.43;6.45;;;13.30;42.70;;;;;;5053442;28;20115;-80
2022/03/21 10:04:12;;;;;;;8.05;6.13;;;13.30;47.50;;;;;;5053578;28;20049;-80
2022/03/21 10:06:45;;;;;;;13.80;6.22;;;13.40;43.00;;;;;;5053387;28;20235;-80
2022/03/21 10:09:17;;;;;;;8.75;5.78;;;13.50;43.10;;;;;;5045699;28;20025;-80
2022/03/21 10:11:59;;;;;;;16.98;5.88;;;13.60;44.30;;;;;;5035209;28;20039;-80
2022/03/21 10:14:53;;;;;;;12.85;6.93;;;13.60;45.30;;;;;;5053295;28;20033;-81
2022/03/21 10:20:15;;;;;;;10.82;6.13;;;13.70;45.40;;;;;;5014964;28;20033;-80
2022/03/21 10:22:48;;;;;;;11.35;6.60;;;13.80;41.40;;;;;;5052978;28;20021;-80
2022/03/21 10:25:19;;;;;;;9.40;6.65;;;13.90;42.90;;;;;;5049523;28;20017;-80
2022/03/21 10:27:46;;;;;;;10.45;6.40;;;14.00;42.20;;;;;;5053375;28;20035;-80
2022/03/21 10:30:15;;;;;;;10.50;6.22;;;14.20;41.30;;;;;;5053157;28;20020;-80
2022/03/21 10:32:46;;;;;;;8.77;6.50;;;14.20;42.90;;;;;;5052993;28;20068;-81
2022/03/21 10:35:22;;;;;;;16.20;6.07;;;14.30;42.10;;;;;;5049232;28;20382;-79
2022/03/21 10:37:58;;;;;;;9.98;6.70;;;14.40;41.50;;;;;;5052914;28;20029;-80
2022/03/21 10:40:33;;;;;;;12.25;6.88;;;14.50;42.10;;;;;;5052809;28;20071;-80
2022/03/21 10:43:00;;;;;;;6.97;6.15;;;14.60;42.90;;;;;;5044892;28;20021;-80
2022/03/21 10:45:40;;;;;;;12.38;6.30;;;14.70;41.30;;;;;;5052858;28;20108;-80
2022/03/21 10:48:08;;;;;;;8.07;6.03;;;14.80;41.00;;;;;;5045704;28;20021;-81
2022/03/21 10:50:40;;;;;;;8.77;6.45;;;14.70;39.50;;;;;;5052817;28;20028;-79
2022/03/21 10:53:12;;;;;;;12.18;6.22;;;14.70;41.60;;;;;;5052739;28;20025;-80
2022/03/21 10:55:40;;;;;;;9.07;6.40;;;14.90;40.80;;;;;;5052533;28;20044;-80
2022/03/21 10:58:06;;;;;;;10.70;5.70;;;15.00;40.40;;;;;;5051474;28;20048;-80
2022/03/21 11:00:33;;;;;;;9.57;6.90;;;14.90;40.20;;;;;;5052593;28;20090;-80
2022/03/21 11:03:09;;;;;;;13.63;6.57;;;14.90;40.60;;;;;;5052338;28;20040;-79
2022/03/21 11:05:40;;;;;;;8.15;6.00;;;14.90;39.90;;;;;;5052284;28;20049;-80
2022/03/21 11:08:08;;;;;;;9.32;5.70;;;14.90;40.50;;;;;;5052364;28;20017;-80
2022/03/21 11:10:35;;;;;;;9.82;6.25;;;15.10;41.10;;;;;;5052109;28;20032;-80
2022/03/21 11:13:06;;;;;;;11.10;5.95;;;15.30;39.80;;;;;;5034573;28;20449;-81
2022/03/21 11:15:35;;;;;;;10.00;5.68;;;15.50;39.70;;;;;;5034067;28;20032;-80
2022/03/21 11:18:01;;;;;;;7.85;5.60;;;15.60;41.10;;;;;;5034460;28;20059;-80
2022/03/21 11:20:30;;;;;;;10.00;5.78;;;15.70;39.90;;;;;;5052365;28;20103;-80
2022/03/21 11:22:57;;;;;;;8.75;5.88;;;15.90;40.80;;;;;;5043605;28;20357;-79
2022/03/21 11:25:28;;;;;;;12.63;5.88;;;16.00;37.90;;;;;;5052089;28;20092;-80
2022/03/21 11:28:23;;;;;;;8.15;5.78;;;15.70;37.80;;;;;;5043608;28;20510;-80
2022/03/21 11:31:24;;;;;;;10.40;5.80;;;15.50;40.00;;;;;;5044601;28;20040;-80
2022/03/21 11:34:22;;;;;;;8.07;5.57;;;15.70;38.90;;;;;;4999450;28;20045;-80
2022/03/21 11:36:56;;;;;;;10.43;5.75;;;16.00;40.30;;;;;;5051640;28;20047;-80
2022/03/21 11:39:22;;;;;;;6.60;5.30;;;16.40;38.50;;;;;;5051979;28;20048;-80
2022/03/21 11:41:59;;;;;;;12.70;6.03;;;16.60;37.60;;;;;;5051735;28;20104;-80
2022/03/21 11:44:25;;;;;;;8.07;6.00;;;16.60;37.20;;;;;;5051788;28;20056;-80
2022/03/21 11:47:11;;;;;;;8.10;5.10;;;16.60;37.70;;;;;;5034144;28;20040;-80
2022/03/21 11:49:40;;;;;;;7.00;5.35;;;16.80;37.30;;;;;;5050956;28;20382;-80
2022/03/21 11:52:06;;;;;;;6.63;5.32;;;16.70;37.00;;;;;;5049815;28;20028;-80
2022/03/21 11:54:37;;;;;;;9.02;5.95;;;16.80;37.40;;;;;;5051237;28;20025;-81
2022/03/21 11:57:17;;;;;;;9.88;5.55;;;17.00;37.40;;;;;;5051615;28;20116;-80
2022/03/21 11:59:48;;;;;;;14.30;5.95;;;17.00;37.10;;;;;;5050137;28;20028;-80
2022/03/21 12:02:13;;;;;;;10.38;6.32;;;17.20;37.80;;;;;;5051208;28;20028;-80
2022/03/21 12:04:55;;;;;;;8.65;5.97;;;17.20;36.90;;;;;;5050815;28;20025;-80
2022/03/21 12:07:21;;;;;;;7.72;5.88;;;17.20;37.10;;;;;;5051531;28;20086;-80
2022/03/21 12:09:52;;;;;;;7.63;5.50;;;17.20;36.80;;;;;;5051031;28;20017;-80
2022/03/21 12:12:22;;;;;;;8.02;5.80;;;17.20;36.30;;;;;;5051286;28;20021;-80
2022/03/21 12:14:56;;;;;;;7.88;5.85;;;17.20;36.10;;;;;;5050559;28;20024;-80
2022/03/21 12:17:26;;;;;;;8.18;6.00;;;17.40;36.60;;;;;;5028871;28;20075;-80
2022/03/21 12:19:57;;;;;;;7.97;6.00;;;18.20;38.30;;;;;;5049096;28;20055;-80
2022/03/21 12:22:35;;;;;;;9.25;6.28;;;21.50;36.30;;;;;;5046997;28;20028;-81
2022/03/21 12:25:29;;;;;;;9.93;6.60;;;25.40;32.20;;;;;;5050098;28;20028;-81
2022/03/21 12:28:16;;;;;;;6.65;5.30;;;28.40;30.60;;;;;;5024811;28;20372;-81
2022/03/21 12:30:42;;;;;;;6.35;5.43;;;30.60;31.20;;;;;;5042359;28;20538;-80
2022/03/21 12:33:14;;;;;;;10.52;5.68;;;32.50;29.10;;;;;;5050858;28;20083;-80
2022/03/21 12:35:52;;;;;;;7.32;5.28;;;33.10;26.60;;;;;;5042283;28;20036;-82
2022/03/21 12:38:21;;;;;;;13.45;6.10;;;33.00;27.60;;;;;;5050804;28;20025;-80
2022/03/21 12:40:47;;;;;;;11.13;6.70;;;30.50;30.80;;;;;;5050831;28;20041;-80
2022/03/21 12:43:16;;;;;;;15.00;6.63;;;27.60;30.70;;;;;;5050591;28;20147;-80
2022/03/21 12:45:43;;;;;;;7.47;6.03;;;27.60;30.10;;;;;;5041967;28;20145;-80
2022/03/21 12:48:11;;;;;;;8.60;6.35;;;27.90;31.10;;;;;;5050634;28;20549;-80
2022/03/21 12:50:38;;;;;;;6.88;6.18;;;28.90;29.70;;;;;;5050530;28;20083;-80
2022/03/21 12:53:10;;;;;;;6.90;5.75;;;30.10;28.70;;;;;;5050820;28;20025;-80
2022/03/21 12:55:40;;;;;;;10.93;6.05;;;31.00;28.70;;;;;;5050753;28;20108;-80
2022/03/21 12:58:10;;;;;;;13.32;5.68;;;30.80;28.40;;;;;;5032867;28;20029;-80
2022/03/21 13:00:38;;;;;;;10.50;6.03;;;31.50;30.70;;;;;;5032467;28;20057;-80
2022/03/21 13:03:12;;;;;;;9.73;6.00;;;30.10;31.70;;;;;;5050370;28;20040;-80
2022/03/21 13:10:32;;;;;;;;;;;31.90;28.20;;;;;;5052507;28;20411;-92
2022/03/21 13:11:46;;;;;;;20.42;5.97;;;34.10;27.60;;;;;;5049706;28;20000;-82
2022/03/21 13:14:18;;;;;;;14.45;6.40;;;32.20;30.60;;;;;;5050520;28;20029;-93
2022/03/21 13:16:49;;;;;;;14.30;6.13;;;26.90;36.00;;;;;;5035340;28;20020;-80
2022/03/21 13:19:29;;;;;;;12.93;6.13;;;23.40;39.80;;;;;;5050619;28;20107;-82
2022/03/21 13:22:04;;;;;;;19.13;5.80;;;22.20;42.50;;;;;;5047113;28;20025;-81
2022/03/21 13:24:44;;;;;;;11.77;5.55;;;22.60;43.80;;;;;;5054161;28;20611;-79
2022/03/21 13:27:15;;;;;;;12.10;5.60;;;23.10;43.30;;;;;;5054869;28;20029;-79
2022/03/21 13:29:51;;;;;;;15.43;5.72;;;24.20;41.80;;;;;;5054048;28;20017;-78
2022/03/21 13:32:17;;;;;;;7.10;5.13;;;22.70;40.70;;;;;;5054394;28;20079;-79
2022/03/21 13:34:59;;;;;;;16.60;5.95;;;22.20;43.40;;;;;;5054615;28;20021;-80
2022/03/21 13:37:34;;;;;;;16.10;6.10;;;23.60;44.30;;;;;;5050848;28;20021;-80
2022/03/21 13:40:07;;;;;;;9.32;4.97;;;22.90;43.80;;;;;;5041918;28;20480;-80